»·PEaware :: N951TA KSBA-KBUR

N951TA :: KSBA-KBUR

FLIGHT INFORMATION

Flight Status: Arrived
Operator: Privately registered:
United States
More flights under this callsign
Pilot: John H. (7647)
Aircraft: CESSNA 172 SKYHAWK
(C172)
More flights by this aircraft type
Origin: KSBA Santa Barbara Mun
United States
Destination: KBUR Bob Hope-Burbank
United States
More flights between these airports :: More routes between these airports
Route: FIM
File this flight plan on PilotEdge
Remarks: CAT-8
Altitude:
(Current/Filed)
3,500ft
Speed:
(Current/Filed)
120kts
Departed: 14-Jul-18 09:43 AM
Arrived: 14-Jul-18 10:31 AM
Distance/Time
Traveled:
75nm/0:48
Distance/Time
To Go:
Arrived

Flight Plot

Page will automatically refresh every two minutes.


Map Options




Map Legend


Flown Route
Filed Route
Departure Airport
Arrival Airport
Navaid (VOR, NDB)
Fix

Horizontal Profiles

Position Reports

Time Latitude Longitude Heading Altitude Ground
Speed
14-Jul-18 09:29 34.432569 -119.835085 72 13ft 0kts
14-Jul-18 09:30 34.432569 -119.835085 72 13ft 0kts
14-Jul-18 09:31 34.432569 -119.835085 72 13ft 0kts
14-Jul-18 09:32 34.432569 -119.835085 72 13ft 0kts
14-Jul-18 09:33 34.432569 -119.835085 72 13ft 0kts
14-Jul-18 09:34 34.432569 -119.835084 72 13ft 0kts
14-Jul-18 09:35 34.432569 -119.835085 72 13ft 0kts
14-Jul-18 09:36 34.432569 -119.835085 72 13ft 0kts
14-Jul-18 09:37 34.432569 -119.835085 72 13ft 0kts
14-Jul-18 09:38 34.432569 -119.835084 72 13ft 0kts
14-Jul-18 09:39 34.432569 -119.835085 72 13ft 0kts
14-Jul-18 09:40 34.432569 -119.835085 72 13ft 0kts
14-Jul-18 09:41 34.432179 -119.835353 200 13ft 11kts
14-Jul-18 09:42 34.430699 -119.839795 242 13ft 1kts
14-Jul-18 09:43 34.430642 -119.839951 245 13ft 3kts
14-Jul-18 09:44 34.424559 -119.838469 160 71ft 68kts
14-Jul-18 09:45 34.406072 -119.833333 162 818ft 67kts
14-Jul-18 09:46 34.388264 -119.826040 154 1362ft 61kts
14-Jul-18 09:47 34.375988 -119.815333 67 1610ft 77kts
14-Jul-18 09:48 34.385377 -119.793315 69 2279ft 74kts
14-Jul-18 09:49 34.393966 -119.772975 69 2919ft 70kts
14-Jul-18 09:50 34.402256 -119.753422 69 3471ft 70kts
14-Jul-18 09:51 34.410238 -119.734113 71 3995ft 70kts
14-Jul-18 09:52 34.416205 -119.712368 81 4469ft 75kts
14-Jul-18 09:53 34.419726 -119.688075 87 4952ft 76kts
14-Jul-18 09:54 34.421283 -119.663179 92 5429ft 74kts
14-Jul-18 09:55 34.421357 -119.633589 93 5499ft 102kts
14-Jul-18 09:56 34.420096 -119.598235 96 5497ft 108kts
14-Jul-18 09:57 34.417894 -119.562608 97 5495ft 110kts
14-Jul-18 09:58 34.415263 -119.526032 97 5466ft 113kts
14-Jul-18 09:59 34.412314 -119.488762 96 5457ft 111kts
14-Jul-18 10:00 34.409273 -119.452839 99 5455ft 108kts
14-Jul-18 10:01 34.406320 -119.417950 98 5461ft 107kts
14-Jul-18 10:02 34.403441 -119.383865 97 5459ft 109kts
14-Jul-18 10:03 34.400933 -119.353145 98 5460ft 112kts
14-Jul-18 10:04 34.397961 -119.320140 99 5484ft 115kts
14-Jul-18 10:05 34.394579 -119.282934 97 5486ft 120kts
14-Jul-18 10:06 34.391123 -119.244882 97 5486ft 122kts
14-Jul-18 10:07 34.387756 -119.206711 96 5487ft 123kts
14-Jul-18 10:08 34.384631 -119.169923 97 5459ft 122kts
14-Jul-18 10:09 34.381255 -119.131714 96 5460ft 121kts
14-Jul-18 10:10 34.377938 -119.094154 96 5456ft 121kts
14-Jul-18 10:11 34.374565 -119.056378 96 5460ft 121kts
14-Jul-18 10:12 34.371256 -119.018714 96 5482ft 120kts
14-Jul-18 10:13 34.367863 -118.980637 96 5478ft 120kts
14-Jul-18 10:14 34.364568 -118.943314 96 5478ft 120kts
14-Jul-18 10:15 34.361317 -118.906918 96 5479ft 120kts
14-Jul-18 10:16 34.354309 -118.869473 108 5478ft 119kts
14-Jul-18 10:17 34.344516 -118.833020 109 5479ft 119kts
14-Jul-18 10:18 34.334401 -118.796795 109 5480ft 119kts
14-Jul-18 10:19 34.324057 -118.760462 110 5471ft 118kts
14-Jul-18 10:20 34.313396 -118.723470 109 5086ft 129kts
14-Jul-18 10:21 34.301949 -118.686183 112 4467ft 132kts
14-Jul-18 10:22 34.288340 -118.646275 110 3913ft 129kts
14-Jul-18 10:23 34.275775 -118.607303 109 3487ft 125kts
14-Jul-18 10:24 34.265263 -118.573747 110 3528ft 99kts
14-Jul-18 10:25 34.254932 -118.540576 110 3534ft 112kts
14-Jul-18 10:26 34.240566 -118.508190 129 3534ft 114kts
14-Jul-18 10:27 34.222868 -118.478453 121 3523ft 97kts
14-Jul-18 10:28 34.208399 -118.452457 124 3036ft 97kts
14-Jul-18 10:29 34.199520 -118.424744 91 2450ft 94kts
14-Jul-18 10:30 34.198033 -118.394430 84 1627ft 94kts
14-Jul-18 10:31 34.197856 -118.369411 86 737ft 55kts
14-Jul-18 10:32 34.197237 -118.364746 182 723ft 0kts
14-Jul-18 10:33 34.195816 -118.362694 197 720ft 15kts
14-Jul-18 10:34 34.196004 -118.363007 6 721ft 0kts
14-Jul-18 10:35 34.196004 -118.363007 6 721ft 0kts
14-Jul-18 10:36 34.196004 -118.363007 6 721ft 0kts
14-Jul-18 10:37 34.196004 -118.363007 6 721ft 0kts
14-Jul-18 10:38 34.196004 -118.363007 6 721ft 0kts
14-Jul-18 10:39 34.196004 -118.363007 6 721ft 0kts
14-Jul-18 10:40 34.196004 -118.363007 6 721ft 0kts
14-Jul-18 10:41 34.196004 -118.363007 6 721ft 0kts
14-Jul-18 10:42 34.196004 -118.363007 6 721ft 0kts
14-Jul-18 10:43 34.196004 -118.363007 6 721ft 0kts
14-Jul-18 10:44 34.196004 -118.363007 6 721ft 0kts
14-Jul-18 10:45 34.196004 -118.363007 6 721ft 0kts
14-Jul-18 10:46 34.196004 -118.363007 6 721ft 0kts

Navigation Log

Ident Type
Flight plan parsing failed, navigation log unavailable